Castle Hayne, NC (28429)

9:15 AM EDT on August 29, 2016 (GMT -0400)
| | Change Station

Elev -9999 ft 0.00 °N, 0.00 °E | Updated

Cloudy
Cloudy
83 °F
Feels Like 88 °F
N
7
Wind Variable Wind from NNE
Gusts mph

Today
High -- | Low -- °F
--% Chance of Precip.
Yesterday
High -- | Low -- °F
Precip. -- in
Pressure 30.09 in
Visibility 10.0 miles
Clouds Overcast 600 ft
Heat Index 88 °F
Dew Point 73 °F
Humidity 73%
Rainfall --
Snow Depth Not available.
6:43 AM 7:41 PM
Waning Crescent, 9% visible
METAR KILM 291253Z 03008KT 10SM OVC006 26/24 A3009 RMK AO2 SLP190 T02560239
Pressure 30.09 in
Visibility 10.0 miles
Clouds Overcast 600 ft
Heat Index 88 °F
Dew Point 73 °F
Humidity 73%
Rainfall --
Snow Depth Not available.
6:43 AM 7:41 PM
Waning Crescent, 9% visible
METAR KILM 291253Z 03008KT 10SM OVC006 26/24 A3009 RMK AO2 SLP190 T02560239
Tropical Depression Eight formed on Sunday in the western Atlantic Ocean between North Carolina and Bermuda. This depression could strengthen into a tropical storm on Monday. The depression was centered about 350 miles southeast of Cape Hatteras, North Carolina, as of Sunday evening, moving west at 9 mph.

According to the National Hurricane Center shows, this system will track to near the Outer Banks of North Carolina by Tuesday. Thereafter, a cold front will move across the Northeast and will likely whisk it back out to sea.

10-Day Weather Forecast

Almanac

Astronomy

Aug. 29, 2016 Rise Set
Actual Time
Civil Twilight
Nautical Twilight
Astronomical Twilight
Moon
Length of Visible Light
Length of Day
Tomorrow will be .
, % of the Moon is Illuminated

Today's Extremes

State Highs State Lows

Community

WunderPhotos

Upload Photos

1,935,817 photos uploaded!

WunderBlog® & News

Nearby

Air Quality

  Air Quality AQ Index Pollutant
Not available.

Snow Depth

Station Depth Elevation

Earthquake Activity

City Distance Mag. Time & Date
Minimum magnitude displayed is 2.5.

Coastal Water Temperatures

Place Temperature

Stations

Nearby Weather Stations

Station Location Temp. Windchill Dew Point Humidity Wind Precip. Elev Updated Type
                   

Watches & Warnings

There are currently no watches in effect.